Terminal Aerodrome Forecast
Issued by NWS

Home | Current Version | Previous Version | Text Only | Print | Product List | Glossary On
Versions: 1 2 3 4 5 6 7 8 9 10 11 12 13 14 15 16 17 18 19 20 21 22 23 24
000
FTAK31 PAJN 021736
TAFAYA
TAF
PAYA 021736Z 0218/0318 VRB03KT P6SM VCFG FEW003 SCT100
     FM022000 28006KT P6SM FEW010 BKN100
     FM030600 VRB03KT P6SM VCFG SCT005 SCT150
     FM031000 00000KT 1 1/2SM BR FEW003 SCT120
     FM031300 00000KT 1/2SM FG VV003
     FM031500 00000KT 6SM BR FEW003 SCT120=

USA.gov is the U.S. government's official web portal to all federal, state and local government web resources and services.